sensor_id;sensor_type;location;lat;lon;timestamp;temperature;humidity
28069;DHT22;15382;47.578;8.086;2023-07-20T00:01:08;18.80;99.90
28069;DHT22;15382;47.578;8.086;2023-07-20T00:11:09;18.50;99.90
28069;DHT22;15382;47.578;8.086;2023-07-20T00:21:10;18.00;99.90
28069;DHT22;15382;47.578;8.086;2023-07-20T00:31:11;18.30;99.90
28069;DHT22;15382;47.578;8.086;2023-07-20T00:41:11;18.30;99.90
28069;DHT22;15382;47.578;8.086;2023-07-20T00:51:14;18.30;99.90
28069;DHT22;15382;47.578;8.086;2023-07-20T01:01:15;18.50;99.90
28069;DHT22;15382;47.578;8.086;2023-07-20T01:11:16;18.30;99.90
28069;DHT22;15382;47.578;8.086;2023-07-20T01:21:22;18.50;99.90
28069;DHT22;15382;47.578;8.086;2023-07-20T01:31:24;18.50;99.90
28069;DHT22;15382;47.578;8.086;2023-07-20T01:41:25;18.30;99.90
28069;DHT22;15382;47.578;8.086;2023-07-20T01:51:26;18.20;99.90
28069;DHT22;15382;47.578;8.086;2023-07-20T02:01:27;17.90;99.90
28069;DHT22;15382;47.578;8.086;2023-07-20T02:11:29;17.70;99.90
28069;DHT22;15382;47.578;8.086;2023-07-20T02:21:29;17.30;99.90
28069;DHT22;15382;47.578;8.086;2023-07-20T02:31:30;17.20;99.90
28069;DHT22;15382;47.578;8.086;2023-07-20T02:41:32;16.80;99.90
28069;DHT22;15382;47.578;8.086;2023-07-20T02:51:33;17.10;99.90
28069;DHT22;15382;47.578;8.086;2023-07-20T03:01:34;16.80;99.90
28069;DHT22;15382;47.578;8.086;2023-07-20T03:11:34;16.60;99.90
28069;DHT22;15382;47.578;8.086;2023-07-20T03:21:35;16.30;99.90
28069;DHT22;15382;47.578;8.086;2023-07-20T03:31:41;16.90;99.90
28069;DHT22;15382;47.578;8.086;2023-07-20T03:41:42;16.60;99.90
28069;DHT22;15382;47.578;8.086;2023-07-20T03:51:43;15.90;99.90
28069;DHT22;15382;47.578;8.086;2023-07-20T04:01:44;15.70;99.90
28069;DHT22;15382;47.578;8.086;2023-07-20T04:11:45;15.80;99.90
28069;DHT22;15382;47.578;8.086;2023-07-20T04:21:45;16.50;99.90
28069;DHT22;15382;47.578;8.086;2023-07-20T04:31:46;15.60;99.90
28069;DHT22;15382;47.578;8.086;2023-07-20T04:41:47;16.10;99.90
28069;DHT22;15382;47.578;8.086;2023-07-20T04:51:50;16.20;99.90
28069;DHT22;15382;47.578;8.086;2023-07-20T05:01:52;15.70;99.90
28069;DHT22;15382;47.578;8.086;2023-07-20T05:11:53;15.60;99.90
28069;DHT22;15382;47.578;8.086;2023-07-20T05:21:53;15.90;99.90
28069;DHT22;15382;47.578;8.086;2023-07-20T05:31:54;16.30;99.90
28069;DHT22;15382;47.578;8.086;2023-07-20T05:41:55;16.70;99.90
28069;DHT22;15382;47.578;8.086;2023-07-20T05:51:55;16.90;99.90
28069;DHT22;15382;47.578;8.086;2023-07-20T06:01:57;16.80;99.90
28069;DHT22;15382;47.578;8.086;2023-07-20T06:11:57;17.40;99.90
28069;DHT22;15382;47.578;8.086;2023-07-20T06:21:58;18.10;99.90
28069;DHT22;15382;47.578;8.086;2023-07-20T06:31:59;18.50;99.90
28069;DHT22;15382;47.578;8.086;2023-07-20T06:42:00;18.60;99.90
28069;DHT22;15382;47.578;8.086;2023-07-20T06:52:00;19.10;99.90
28069;DHT22;15382;47.578;8.086;2023-07-20T07:02:03;19.70;99.90
28069;DHT22;15382;47.578;8.086;2023-07-20T07:12:07;20.70;99.90
28069;DHT22;15382;47.578;8.086;2023-07-20T07:22:08;21.60;99.90
28069;DHT22;15382;47.578;8.086;2023-07-20T07:32:09;21.90;99.90
28069;DHT22;15382;47.578;8.086;2023-07-20T07:42:11;21.40;99.90
28069;DHT22;15382;47.578;8.086;2023-07-20T07:52:12;20.70;99.90
28069;DHT22;15382;47.578;8.086;2023-07-20T08:02:12;21.70;99.90
28069;DHT22;15382;47.578;8.086;2023-07-20T08:12:13;22.60;99.90
28069;DHT22;15382;47.578;8.086;2023-07-20T08:22:14;23.70;99.90
28069;DHT22;15382;47.578;8.086;2023-07-20T08:32:14;24.00;99.90
28069;DHT22;15382;47.578;8.086;2023-07-20T08:42:15;23.10;99.90
28069;DHT22;15382;47.578;8.086;2023-07-20T08:52:17;23.00;99.90
28069;DHT22;15382;47.578;8.086;2023-07-20T09:02:17;22.70;99.90
28069;DHT22;15382;47.578;8.086;2023-07-20T09:12:18;24.10;99.90
28069;DHT22;15382;47.578;8.086;2023-07-20T09:22:19;26.10;99.90
28069;DHT22;15382;47.578;8.086;2023-07-20T09:32:20;26.90;99.90
28069;DHT22;15382;47.578;8.086;2023-07-20T09:42:22;25.60;99.90
28069;DHT22;15382;47.578;8.086;2023-07-20T09:52:23;24.80;99.90
28069;DHT22;15382;47.578;8.086;2023-07-20T10:02:25;25.20;99.90
28069;DHT22;15382;47.578;8.086;2023-07-20T10:12:26;25.30;99.90
28069;DHT22;15382;47.578;8.086;2023-07-20T10:22:27;26.00;99.90
28069;DHT22;15382;47.578;8.086;2023-07-20T10:32:30;25.20;99.90
28069;DHT22;15382;47.578;8.086;2023-07-20T10:42:33;24.40;99.90
28069;DHT22;15382;47.578;8.086;2023-07-20T10:52:37;26.10;99.90
28069;DHT22;15382;47.578;8.086;2023-07-20T11:02:44;24.50;99.90
28069;DHT22;15382;47.578;8.086;2023-07-20T11:23:04;26.60;98.80
28069;DHT22;15382;47.578;8.086;2023-07-20T11:33:05;27.20;97.90
28069;DHT22;15382;47.578;8.086;2023-07-20T11:43:06;27.60;95.30
28069;DHT22;15382;47.578;8.086;2023-07-20T11:53:07;27.40;95.30
28069;DHT22;15382;47.578;8.086;2023-07-20T12:03:09;27.80;95.80
28069;DHT22;15382;47.578;8.086;2023-07-20T12:13:10;27.90;94.90
28069;DHT22;15382;47.578;8.086;2023-07-20T12:23:14;28.40;95.00
28069;DHT22;15382;47.578;8.086;2023-07-20T12:33:17;27.00;96.00
28069;DHT22;15382;47.578;8.086;2023-07-20T12:43:18;27.90;95.30
28069;DHT22;15382;47.578;8.086;2023-07-20T12:53:18;27.50;94.90
28069;DHT22;15382;47.578;8.086;2023-07-20T13:03:19;27.60;94.20
28069;DHT22;15382;47.578;8.086;2023-07-20T13:13:20;27.80;94.90
28069;DHT22;15382;47.578;8.086;2023-07-20T13:23:20;27.30;95.00
28069;DHT22;15382;47.578;8.086;2023-07-20T13:33:21;26.50;96.40
28069;DHT22;15382;47.578;8.086;2023-07-20T13:43:22;25.70;96.80
28069;DHT22;15382;47.578;8.086;2023-07-20T13:53:22;25.40;98.10
28069;DHT22;15382;47.578;8.086;2023-07-20T14:03:23;25.60;98.10
28069;DHT22;15382;47.578;8.086;2023-07-20T14:13:24;25.80;97.70
28069;DHT22;15382;47.578;8.086;2023-07-20T14:23:24;27.60;94.90
28069;DHT22;15382;47.578;8.086;2023-07-20T14:33:25;27.30;95.50
28069;DHT22;15382;47.578;8.086;2023-07-20T14:43:26;28.20;95.10
28069;DHT22;15382;47.578;8.086;2023-07-20T14:53:26;27.70;94.90
28069;DHT22;15382;47.578;8.086;2023-07-20T15:03:29;28.30;94.10
28069;DHT22;15382;47.578;8.086;2023-07-20T15:13:31;27.60;93.60
28069;DHT22;15382;47.578;8.086;2023-07-20T15:23:31;27.60;94.10
28069;DHT22;15382;47.578;8.086;2023-07-20T15:33:32;26.80;94.60
28069;DHT22;15382;47.578;8.086;2023-07-20T15:43:33;26.70;94.80
28069;DHT22;15382;47.578;8.086;2023-07-20T15:53:33;27.00;94.60
28069;DHT22;15382;47.578;8.086;2023-07-20T16:03:34;27.20;93.00
28069;DHT22;15382;47.578;8.086;2023-07-20T16:13:34;27.20;93.30
28069;DHT22;15382;47.578;8.086;2023-07-20T16:23:35;26.70;94.10
28069;DHT22;15382;47.578;8.086;2023-07-20T16:33:41;26.50;93.50
28069;DHT22;15382;47.578;8.086;2023-07-20T16:43:42;26.30;93.60
28069;DHT22;15382;47.578;8.086;2023-07-20T16:53:42;26.70;94.00
28069;DHT22;15382;47.578;8.086;2023-07-20T17:03:43;26.30;93.80
28069;DHT22;15382;47.578;8.086;2023-07-20T17:13:44;26.10;93.30
28069;DHT22;15382;47.578;8.086;2023-07-20T17:23:44;25.90;93.30
28069;DHT22;15382;47.578;8.086;2023-07-20T17:33:45;25.90;93.90
28069;DHT22;15382;47.578;8.086;2023-07-20T17:43:46;26.00;93.90
28069;DHT22;15382;47.578;8.086;2023-07-20T17:53:47;25.70;93.30
28069;DHT22;15382;47.578;8.086;2023-07-20T18:03:47;25.90;94.30
28069;DHT22;15382;47.578;8.086;2023-07-20T18:13:48;25.50;95.00
28069;DHT22;15382;47.578;8.086;2023-07-20T18:23:49;25.50;95.40
28069;DHT22;15382;47.578;8.086;2023-07-20T18:33:51;25.10;96.50
28069;DHT22;15382;47.578;8.086;2023-07-20T18:43:52;24.10;99.60
28069;DHT22;15382;47.578;8.086;2023-07-20T18:53:53;23.30;99.90
28069;DHT22;15382;47.578;8.086;2023-07-20T19:03:54;22.70;99.90
28069;DHT22;15382;47.578;8.086;2023-07-20T19:13:56;22.40;99.90
28069;DHT22;15382;47.578;8.086;2023-07-20T19:23:56;21.40;99.90
28069;DHT22;15382;47.578;8.086;2023-07-20T19:33:57;21.20;99.90
28069;DHT22;15382;47.578;8.086;2023-07-20T19:43:58;20.90;99.90
28069;DHT22;15382;47.578;8.086;2023-07-20T19:53:58;20.70;99.90
28069;DHT22;15382;47.578;8.086;2023-07-20T20:03:59;20.20;99.90
28069;DHT22;15382;47.578;8.086;2023-07-20T20:14:00;19.40;99.90
28069;DHT22;15382;47.578;8.086;2023-07-20T20:24:01;19.70;99.90
28069;DHT22;15382;47.578;8.086;2023-07-20T20:34:01;19.60;99.90
28069;DHT22;15382;47.578;8.086;2023-07-20T20:44:02;19.30;99.90
28069;DHT22;15382;47.578;8.086;2023-07-20T20:54:03;18.90;99.90
28069;DHT22;15382;47.578;8.086;2023-07-20T21:04:04;18.50;99.90
28069;DHT22;15382;47.578;8.086;2023-07-20T21:14:05;18.00;99.90
28069;DHT22;15382;47.578;8.086;2023-07-20T21:24:05;18.00;99.90
28069;DHT22;15382;47.578;8.086;2023-07-20T21:34:06;18.30;99.90
28069;DHT22;15382;47.578;8.086;2023-07-20T21:44:07;18.60;99.90
28069;DHT22;15382;47.578;8.086;2023-07-20T21:54:07;18.70;99.90
28069;DHT22;15382;47.578;8.086;2023-07-20T22:04:08;18.80;99.90
28069;DHT22;15382;47.578;8.086;2023-07-20T22:14:09;18.50;99.90
28069;DHT22;15382;47.578;8.086;2023-07-20T22:24:10;18.70;99.90
28069;DHT22;15382;47.578;8.086;2023-07-20T22:34:11;18.30;99.90
28069;DHT22;15382;47.578;8.086;2023-07-20T22:44:12;17.90;99.90
28069;DHT22;15382;47.578;8.086;2023-07-20T22:54:13;17.70;99.90
28069;DHT22;15382;47.578;8.086;2023-07-20T23:04:13;17.60;99.90
28069;DHT22;15382;47.578;8.086;2023-07-20T23:14:14;17.70;99.90
28069;DHT22;15382;47.578;8.086;2023-07-20T23:24:15;17.70;99.90
28069;DHT22;15382;47.578;8.086;2023-07-20T23:34:15;17.90;99.90
28069;DHT22;15382;47.578;8.086;2023-07-20T23:44:16;17.50;99.90
28069;DHT22;15382;47.578;8.086;2023-07-20T23:54:17;17.20;99.90
